sensor_id;sensor_type;location;lat;lon;timestamp;temperature;humidity
212;DHT22;16228;48.800;9.002;2022-12-18T00:01:16;-12.30;96.90
212;DHT22;16228;48.800;9.002;2022-12-18T00:03:44;-12.30;96.90
212;DHT22;16228;48.800;9.002;2022-12-18T00:06:16;-12.30;96.90
212;DHT22;16228;48.800;9.002;2022-12-18T00:08:44;-12.30;96.90
212;DHT22;16228;48.800;9.002;2022-12-18T00:11:13;-12.40;96.90
212;DHT22;16228;48.800;9.002;2022-12-18T00:13:42;-12.40;96.90
212;DHT22;16228;48.800;9.002;2022-12-18T00:16:10;-12.40;96.90
212;DHT22;16228;48.800;9.002;2022-12-18T00:18:38;-12.50;96.90
212;DHT22;16228;48.800;9.002;2022-12-18T00:21:06;-12.60;96.90
212;DHT22;16228;48.800;9.002;2022-12-18T00:23:34;-12.70;96.90
212;DHT22;16228;48.800;9.002;2022-12-18T00:26:04;-12.70;96.90
212;DHT22;16228;48.800;9.002;2022-12-18T00:28:32;-12.70;96.90
212;DHT22;16228;48.800;9.002;2022-12-18T00:31:02;-12.60;96.90
212;DHT22;16228;48.800;9.002;2022-12-18T00:33:29;-12.60;96.90
212;DHT22;16228;48.800;9.002;2022-12-18T00:36:00;-12.70;96.90
212;DHT22;16228;48.800;9.002;2022-12-18T00:38:27;-12.80;96.90
212;DHT22;16228;48.800;9.002;2022-12-18T00:40:55;-12.70;96.90
212;DHT22;16228;48.800;9.002;2022-12-18T00:43:22;-12.90;96.90
212;DHT22;16228;48.800;9.002;2022-12-18T00:45:48;-12.90;96.90
212;DHT22;16228;48.800;9.002;2022-12-18T00:48:17;-12.80;96.90
212;DHT22;16228;48.800;9.002;2022-12-18T00:50:44;-12.80;96.90
212;DHT22;16228;48.800;9.002;2022-12-18T00:53:11;-12.70;96.90
212;DHT22;16228;48.800;9.002;2022-12-18T00:55:39;-12.70;96.90
212;DHT22;16228;48.800;9.002;2022-12-18T00:58:07;-12.60;96.90
212;DHT22;16228;48.800;9.002;2022-12-18T01:00:34;-12.60;96.90
212;DHT22;16228;48.800;9.002;2022-12-18T01:03:01;-12.70;96.90
212;DHT22;16228;48.800;9.002;2022-12-18T01:05:30;-12.70;96.90
212;DHT22;16228;48.800;9.002;2022-12-18T01:07:58;-12.70;96.90
212;DHT22;16228;48.800;9.002;2022-12-18T01:10:26;-12.60;96.90
212;DHT22;16228;48.800;9.002;2022-12-18T01:12:53;-12.60;96.90
212;DHT22;16228;48.800;9.002;2022-12-18T01:15:20;-12.70;96.90
212;DHT22;16228;48.800;9.002;2022-12-18T01:17:48;-12.70;96.90
212;DHT22;16228;48.800;9.002;2022-12-18T01:20:15;-12.70;96.90
212;DHT22;16228;48.800;9.002;2022-12-18T01:22:43;-12.70;96.90
212;DHT22;16228;48.800;9.002;2022-12-18T01:25:11;-12.80;96.90
212;DHT22;16228;48.800;9.002;2022-12-18T01:27:38;-12.70;96.90
212;DHT22;16228;48.800;9.002;2022-12-18T01:30:06;-12.70;96.90
212;DHT22;16228;48.800;9.002;2022-12-18T01:32:34;-12.70;96.90
212;DHT22;16228;48.800;9.002;2022-12-18T01:35:01;-12.70;96.90
212;DHT22;16228;48.800;9.002;2022-12-18T01:37:28;-12.60;96.90
212;DHT22;16228;48.800;9.002;2022-12-18T01:39:57;-12.60;96.90
212;DHT22;16228;48.800;9.002;2022-12-18T01:42:24;-12.60;96.90
212;DHT22;16228;48.800;9.002;2022-12-18T01:45:06;-12.60;96.90
212;DHT22;16228;48.800;9.002;2022-12-18T01:47:36;-12.60;96.90
212;DHT22;16228;48.800;9.002;2022-12-18T01:50:08;-12.60;96.90
212;DHT22;16228;48.800;9.002;2022-12-18T01:52:39;-12.50;96.90
212;DHT22;16228;48.800;9.002;2022-12-18T01:55:09;-12.60;96.90
212;DHT22;16228;48.800;9.002;2022-12-18T01:57:37;-12.60;96.90
212;DHT22;16228;48.800;9.002;2022-12-18T02:00:08;-12.50;96.90
212;DHT22;16228;48.800;9.002;2022-12-18T02:02:36;-12.30;96.90
212;DHT22;16228;48.800;9.002;2022-12-18T02:05:04;-12.30;96.90
212;DHT22;16228;48.800;9.002;2022-12-18T02:07:39;-12.30;96.90
212;DHT22;16228;48.800;9.002;2022-12-18T02:10:15;-12.30;96.90
212;DHT22;16228;48.800;9.002;2022-12-18T02:12:51;-12.10;96.90
212;DHT22;16228;48.800;9.002;2022-12-18T02:15:24;-12.10;96.90
212;DHT22;16228;48.800;9.002;2022-12-18T02:17:56;-12.10;96.90
212;DHT22;16228;48.800;9.002;2022-12-18T02:20:28;-12.00;96.90
212;DHT22;16228;48.800;9.002;2022-12-18T02:23:08;-11.80;96.90
212;DHT22;16228;48.800;9.002;2022-12-18T02:28:40;-11.60;96.90
212;DHT22;16228;48.800;9.002;2022-12-18T02:31:13;-11.60;96.90
212;DHT22;16228;48.800;9.002;2022-12-18T02:33:43;-11.70;96.90
212;DHT22;16228;48.800;9.002;2022-12-18T02:36:13;-11.70;96.90
212;DHT22;16228;48.800;9.002;2022-12-18T02:38:42;-11.70;96.90
212;DHT22;16228;48.800;9.002;2022-12-18T02:41:12;-11.70;96.90
212;DHT22;16228;48.800;9.002;2022-12-18T02:43:46;-11.70;96.90
212;DHT22;16228;48.800;9.002;2022-12-18T02:46:31;-11.70;96.90
212;DHT22;16228;48.800;9.002;2022-12-18T02:49:09;-11.70;96.90
212;DHT22;16228;48.800;9.002;2022-12-18T02:51:46;-11.70;96.90
212;DHT22;16228;48.800;9.002;2022-12-18T02:54:33;-11.70;96.90
212;DHT22;16228;48.800;9.002;2022-12-18T02:57:09;-11.60;96.90
212;DHT22;16228;48.800;9.002;2022-12-18T02:59:47;-11.50;96.90
212;DHT22;16228;48.800;9.002;2022-12-18T03:02:21;-11.50;96.90
212;DHT22;16228;48.800;9.002;2022-12-18T03:04:54;-11.50;96.90
212;DHT22;16228;48.800;9.002;2022-12-18T03:07:30;-11.50;96.90
212;DHT22;16228;48.800;9.002;2022-12-18T03:10:00;-11.50;96.90
212;DHT22;16228;48.800;9.002;2022-12-18T03:12:30;-11.30;96.90
212;DHT22;16228;48.800;9.002;2022-12-18T03:15:03;-11.30;96.90
212;DHT22;16228;48.800;9.002;2022-12-18T03:17:33;-11.30;96.90
212;DHT22;16228;48.800;9.002;2022-12-18T03:20:05;-11.20;96.90
212;DHT22;16228;48.800;9.002;2022-12-18T03:22:36;-11.20;96.90
212;DHT22;16228;48.800;9.002;2022-12-18T03:25:07;-11.20;96.90
212;DHT22;16228;48.800;9.002;2022-12-18T03:27:37;-11.20;96.90
212;DHT22;16228;48.800;9.002;2022-12-18T03:30:10;-11.30;96.90
212;DHT22;16228;48.800;9.002;2022-12-18T03:32:42;-11.30;96.90
212;DHT22;16228;48.800;9.002;2022-12-18T03:35:12;-11.30;96.90
212;DHT22;16228;48.800;9.002;2022-12-18T03:37:41;-11.30;96.90
212;DHT22;16228;48.800;9.002;2022-12-18T03:40:09;-11.40;96.90
212;DHT22;16228;48.800;9.002;2022-12-18T03:42:44;-11.50;96.90
212;DHT22;16228;48.800;9.002;2022-12-18T03:45:20;-11.50;96.90
212;DHT22;16228;48.800;9.002;2022-12-18T03:47:59;-11.60;96.90
212;DHT22;16228;48.800;9.002;2022-12-18T03:50:33;-11.60;96.90
212;DHT22;16228;48.800;9.002;2022-12-18T03:53:09;-11.50;96.90
212;DHT22;16228;48.800;9.002;2022-12-18T03:55:41;-11.50;96.90
212;DHT22;16228;48.800;9.002;2022-12-18T03:58:11;-11.50;96.90
212;DHT22;16228;48.800;9.002;2022-12-18T04:00:43;-11.50;96.90
212;DHT22;16228;48.800;9.002;2022-12-18T04:03:11;-11.50;96.90
212;DHT22;16228;48.800;9.002;2022-12-18T04:05:41;-11.50;96.90
212;DHT22;16228;48.800;9.002;2022-12-18T04:08:09;-11.50;96.90
212;DHT22;16228;48.800;9.002;2022-12-18T04:10:36;-11.50;96.90
212;DHT22;16228;48.800;9.002;2022-12-18T04:13:04;-11.70;96.90
212;DHT22;16228;48.800;9.002;2022-12-18T04:15:32;-11.70;96.90
212;DHT22;16228;48.800;9.002;2022-12-18T04:18:02;-11.70;96.90
212;DHT22;16228;48.800;9.002;2022-12-18T04:20:30;-11.70;96.90
212;DHT22;16228;48.800;9.002;2022-12-18T04:22:57;-11.60;96.90
212;DHT22;16228;48.800;9.002;2022-12-18T04:25:24;-11.70;96.90
212;DHT22;16228;48.800;9.002;2022-12-18T04:27:51;-11.70;96.90
212;DHT22;16228;48.800;9.002;2022-12-18T04:30:18;-11.70;96.90
212;DHT22;16228;48.800;9.002;2022-12-18T04:32:46;-11.70;96.90
212;DHT22;16228;48.800;9.002;2022-12-18T04:35:14;-11.70;96.90
212;DHT22;16228;48.800;9.002;2022-12-18T04:37:41;-11.70;96.90
212;DHT22;16228;48.800;9.002;2022-12-18T04:40:10;-11.70;96.90
212;DHT22;16228;48.800;9.002;2022-12-18T04:42:38;-11.70;96.90
212;DHT22;16228;48.800;9.002;2022-12-18T04:45:07;-11.70;96.90
212;DHT22;16228;48.800;9.002;2022-12-18T04:47:34;-11.70;96.90
212;DHT22;16228;48.800;9.002;2022-12-18T04:50:01;-11.70;96.90
212;DHT22;16228;48.800;9.002;2022-12-18T04:52:30;-11.80;96.90
212;DHT22;16228;48.800;9.002;2022-12-18T04:54:57;-11.80;96.90
212;DHT22;16228;48.800;9.002;2022-12-18T04:57:24;-11.90;96.90
212;DHT22;16228;48.800;9.002;2022-12-18T04:59:51;-11.80;96.90
212;DHT22;16228;48.800;9.002;2022-12-18T05:02:19;-11.80;96.90
212;DHT22;16228;48.800;9.002;2022-12-18T05:04:46;-11.80;96.90
212;DHT22;16228;48.800;9.002;2022-12-18T05:07:13;-11.90;96.90
212;DHT22;16228;48.800;9.002;2022-12-18T05:09:42;-11.90;96.90
212;DHT22;16228;48.800;9.002;2022-12-18T05:12:09;-11.90;96.90
212;DHT22;16228;48.800;9.002;2022-12-18T05:14:36;-11.90;96.90
212;DHT22;16228;48.800;9.002;2022-12-18T05:17:03;-11.80;96.90
212;DHT22;16228;48.800;9.002;2022-12-18T05:19:30;-11.90;96.90
212;DHT22;16228;48.800;9.002;2022-12-18T05:21:58;-11.90;96.90
212;DHT22;16228;48.800;9.002;2022-12-18T05:24:25;-11.90;96.90
212;DHT22;16228;48.800;9.002;2022-12-18T05:26:53;-11.90;96.90
212;DHT22;16228;48.800;9.002;2022-12-18T05:29:21;-12.00;96.90
212;DHT22;16228;48.800;9.002;2022-12-18T05:31:48;-12.00;96.90
212;DHT22;16228;48.800;9.002;2022-12-18T05:34:15;-11.90;96.90
212;DHT22;16228;48.800;9.002;2022-12-18T05:36:42;-11.80;96.90
212;DHT22;16228;48.800;9.002;2022-12-18T05:39:09;-11.80;96.90
212;DHT22;16228;48.800;9.002;2022-12-18T05:41:37;-11.80;96.90
212;DHT22;16228;48.800;9.002;2022-12-18T05:44:06;-11.70;96.90
212;DHT22;16228;48.800;9.002;2022-12-18T05:46:33;-11.70;96.90
212;DHT22;16228;48.800;9.002;2022-12-18T05:49:00;-11.60;96.90
212;DHT22;16228;48.800;9.002;2022-12-18T05:51:28;-11.60;96.90
212;DHT22;16228;48.800;9.002;2022-12-18T05:53:55;-11.50;96.90
212;DHT22;16228;48.800;9.002;2022-12-18T05:56:23;-11.50;96.90
212;DHT22;16228;48.800;9.002;2022-12-18T05:58:51;-11.50;96.90
212;DHT22;16228;48.800;9.002;2022-12-18T06:01:23;-11.50;96.90
212;DHT22;16228;48.800;9.002;2022-12-18T06:03:50;-11.40;96.90
212;DHT22;16228;48.800;9.002;2022-12-18T06:06:19;-11.40;96.90
212;DHT22;16228;48.800;9.002;2022-12-18T06:08:47;-11.40;96.90
212;DHT22;16228;48.800;9.002;2022-12-18T06:11:17;-11.30;96.90
212;DHT22;16228;48.800;9.002;2022-12-18T06:13:45;-11.30;96.90
212;DHT22;16228;48.800;9.002;2022-12-18T06:16:13;-11.30;96.90
212;DHT22;16228;48.800;9.002;2022-12-18T06:18:42;-11.30;96.90
212;DHT22;16228;48.800;9.002;2022-12-18T06:21:09;-11.30;96.90
212;DHT22;16228;48.800;9.002;2022-12-18T06:23:36;-11.30;96.90
212;DHT22;16228;48.800;9.002;2022-12-18T06:26:05;-11.30;96.90
212;DHT22;16228;48.800;9.002;2022-12-18T06:28:32;-11.30;96.90
212;DHT22;16228;48.800;9.002;2022-12-18T06:30:59;-11.30;96.90
212;DHT22;16228;48.800;9.002;2022-12-18T06:33:27;-11.30;96.90
212;DHT22;16228;48.800;9.002;2022-12-18T06:36:00;-11.30;96.90
212;DHT22;16228;48.800;9.002;2022-12-18T06:38:27;-11.40;96.90
212;DHT22;16228;48.800;9.002;2022-12-18T06:40:54;-11.30;96.90
212;DHT22;16228;48.800;9.002;2022-12-18T06:43:22;-11.40;96.90
212;DHT22;16228;48.800;9.002;2022-12-18T06:45:49;-11.40;96.90
212;DHT22;16228;48.800;9.002;2022-12-18T06:48:18;-11.30;96.90
212;DHT22;16228;48.800;9.002;2022-12-18T06:50:46;-11.30;96.90
212;DHT22;16228;48.800;9.002;2022-12-18T06:53:14;-11.30;96.90
212;DHT22;16228;48.800;9.002;2022-12-18T06:55:42;-11.20;96.90
212;DHT22;16228;48.800;9.002;2022-12-18T06:58:09;-11.30;96.90
212;DHT22;16228;48.800;9.002;2022-12-18T07:00:36;-11.40;96.90
212;DHT22;16228;48.800;9.002;2022-12-18T07:03:04;-11.40;96.90
212;DHT22;16228;48.800;9.002;2022-12-18T07:05:31;-11.40;96.90
212;DHT22;16228;48.800;9.002;2022-12-18T07:07:58;-11.40;96.90
212;DHT22;16228;48.800;9.002;2022-12-18T07:10:27;-11.30;96.90
212;DHT22;16228;48.800;9.002;2022-12-18T07:12:54;-11.10;96.90
212;DHT22;16228;48.800;9.002;2022-12-18T07:15:21;-11.10;96.90
212;DHT22;16228;48.800;9.002;2022-12-18T07:17:49;-11.10;96.90
212;DHT22;16228;48.800;9.002;2022-12-18T07:20:16;-11.10;96.90
212;DHT22;16228;48.800;9.002;2022-12-18T07:22:43;-11.10;96.90
212;DHT22;16228;48.800;9.002;2022-12-18T07:25:11;-11.10;96.90
212;DHT22;16228;48.800;9.002;2022-12-18T07:27:39;-11.00;96.90
212;DHT22;16228;48.800;9.002;2022-12-18T07:30:08;-11.00;96.90
212;DHT22;16228;48.800;9.002;2022-12-18T07:32:36;-10.90;96.90
212;DHT22;16228;48.800;9.002;2022-12-18T07:35:03;-10.90;96.90
212;DHT22;16228;48.800;9.002;2022-12-18T07:37:31;-10.90;96.90
212;DHT22;16228;48.800;9.002;2022-12-18T07:39:58;-10.80;96.90
212;DHT22;16228;48.800;9.002;2022-12-18T07:42:25;-10.70;96.90
212;DHT22;16228;48.800;9.002;2022-12-18T07:45:00;-10.70;96.90
212;DHT22;16228;48.800;9.002;2022-12-18T07:47:27;-10.70;96.90
212;DHT22;16228;48.800;9.002;2022-12-18T07:49:55;-10.50;96.90
212;DHT22;16228;48.800;9.002;2022-12-18T07:52:25;-10.40;96.90
212;DHT22;16228;48.800;9.002;2022-12-18T07:54:52;-10.40;96.90
212;DHT22;16228;48.800;9.002;2022-12-18T07:57:19;-10.30;96.90
212;DHT22;16228;48.800;9.002;2022-12-18T07:59:46;-10.40;96.90
212;DHT22;16228;48.800;9.002;2022-12-18T08:02:15;-10.30;96.90
212;DHT22;16228;48.800;9.002;2022-12-18T08:04:42;-10.30;96.90
212;DHT22;16228;48.800;9.002;2022-12-18T08:07:09;-10.20;96.90
212;DHT22;16228;48.800;9.002;2022-12-18T08:09:36;-10.20;96.90
212;DHT22;16228;48.800;9.002;2022-12-18T08:12:04;-10.10;96.90
212;DHT22;16228;48.800;9.002;2022-12-18T08:14:32;-10.00;96.90
212;DHT22;16228;48.800;9.002;2022-12-18T08:16:59;-9.90;96.90
212;DHT22;16228;48.800;9.002;2022-12-18T08:19:27;-9.80;96.90
212;DHT22;16228;48.800;9.002;2022-12-18T08:21:55;-9.60;96.90
212;DHT22;16228;48.800;9.002;2022-12-18T08:24:22;-9.50;96.90
212;DHT22;16228;48.800;9.002;2022-12-18T08:26:49;-9.40;96.90
212;DHT22;16228;48.800;9.002;2022-12-18T08:29:17;-9.40;96.90
212;DHT22;16228;48.800;9.002;2022-12-18T08:31:44;-9.30;96.90
212;DHT22;16228;48.800;9.002;2022-12-18T08:34:11;-9.00;96.90
212;DHT22;16228;48.800;9.002;2022-12-18T08:36:40;-8.80;96.90
212;DHT22;16228;48.800;9.002;2022-12-18T08:39:07;-8.50;96.90
212;DHT22;16228;48.800;9.002;2022-12-18T08:41:34;-8.30;96.90
212;DHT22;16228;48.800;9.002;2022-12-18T08:44:02;-8.20;96.90
212;DHT22;16228;48.800;9.002;2022-12-18T08:46:52;-8.00;96.90
212;DHT22;16228;48.800;9.002;2022-12-18T08:49:19;-7.70;96.90
212;DHT22;16228;48.800;9.002;2022-12-18T08:51:48;-7.50;96.90
212;DHT22;16228;48.800;9.002;2022-12-18T08:54:15;-7.30;96.90
212;DHT22;16228;48.800;9.002;2022-12-18T08:56:42;-7.20;96.90
212;DHT22;16228;48.800;9.002;2022-12-18T08:59:09;-7.10;96.90
212;DHT22;16228;48.800;9.002;2022-12-18T09:01:36;-7.00;96.90
212;DHT22;16228;48.800;9.002;2022-12-18T09:04:04;-6.70;96.90
212;DHT22;16228;48.800;9.002;2022-12-18T09:06:31;-6.60;96.90
212;DHT22;16228;48.800;9.002;2022-12-18T09:09:00;-6.30;96.90
212;DHT22;16228;48.800;9.002;2022-12-18T09:11:28;-6.00;96.90
212;DHT22;16228;48.800;9.002;2022-12-18T09:13:55;-5.60;96.90
212;DHT22;16228;48.800;9.002;2022-12-18T09:16:24;-5.30;96.90
212;DHT22;16228;48.800;9.002;2022-12-18T09:18:51;-4.90;96.90
212;DHT22;16228;48.800;9.002;2022-12-18T09:21:26;-4.50;96.90
212;DHT22;16228;48.800;9.002;2022-12-18T09:23:54;-4.00;96.90
212;DHT22;16228;48.800;9.002;2022-12-18T09:26:24;-3.80;96.90
212;DHT22;16228;48.800;9.002;2022-12-18T09:28:52;-3.70;96.90
212;DHT22;16228;48.800;9.002;2022-12-18T09:31:21;-3.50;96.90
212;DHT22;16228;48.800;9.002;2022-12-18T09:33:48;-3.20;96.90
212;DHT22;16228;48.800;9.002;2022-12-18T09:36:16;-3.30;96.90
212;DHT22;16228;48.800;9.002;2022-12-18T09:38:44;-3.10;96.90
212;DHT22;16228;48.800;9.002;2022-12-18T09:41:29;-3.00;96.90
212;DHT22;16228;48.800;9.002;2022-12-18T09:44:02;-2.60;96.90
212;DHT22;16228;48.800;9.002;2022-12-18T09:46:34;-1.90;96.90
212;DHT22;16228;48.800;9.002;2022-12-18T09:49:05;-1.20;96.90
212;DHT22;16228;48.800;9.002;2022-12-18T09:51:38;-0.50;96.90
212;DHT22;16228;48.800;9.002;2022-12-18T09:54:21;-0.10;96.90
212;DHT22;16228;48.800;9.002;2022-12-18T09:56:50;0.40;96.90
212;DHT22;16228;48.800;9.002;2022-12-18T09:59:23;1.00;96.90
212;DHT22;16228;48.800;9.002;2022-12-18T10:01:51;1.50;96.90
212;DHT22;16228;48.800;9.002;2022-12-18T10:04:18;1.60;96.90
212;DHT22;16228;48.800;9.002;2022-12-18T10:06:50;1.50;96.90
212;DHT22;16228;48.800;9.002;2022-12-18T10:09:26;1.30;96.90
212;DHT22;16228;48.800;9.002;2022-12-18T10:12:02;1.70;96.90
212;DHT22;16228;48.800;9.002;2022-12-18T10:14:39;2.20;96.90
212;DHT22;16228;48.800;9.002;2022-12-18T10:17:17;2.70;96.90
212;DHT22;16228;48.800;9.002;2022-12-18T10:19:51;3.40;96.70
212;DHT22;16228;48.800;9.002;2022-12-18T10:22:30;5.20;91.90
212;DHT22;16228;48.800;9.002;2022-12-18T10:25:05;5.30;91.10
212;DHT22;16228;48.800;9.002;2022-12-18T10:27:38;5.40;87.10
212;DHT22;16228;48.800;9.002;2022-12-18T10:30:13;5.90;88.60
212;DHT22;16228;48.800;9.002;2022-12-18T10:32:40;6.80;86.30
212;DHT22;16228;48.800;9.002;2022-12-18T10:35:15;7.70;84.60
212;DHT22;16228;48.800;9.002;2022-12-18T10:38:19;8.80;81.00
212;DHT22;16228;48.800;9.002;2022-12-18T10:40:49;9.90;78.70
212;DHT22;16228;48.800;9.002;2022-12-18T10:43:22;10.50;75.70
212;DHT22;16228;48.800;9.002;2022-12-18T10:46:17;9.90;75.00
212;DHT22;16228;48.800;9.002;2022-12-18T10:48:53;9.90;76.40
212;DHT22;16228;48.800;9.002;2022-12-18T10:51:23;10.10;76.40
212;DHT22;16228;48.800;9.002;2022-12-18T10:53:54;10.20;76.30
212;DHT22;16228;48.800;9.002;2022-12-18T10:56:24;9.90;75.00
212;DHT22;16228;48.800;9.002;2022-12-18T10:58:59;9.40;76.20
212;DHT22;16228;48.800;9.002;2022-12-18T11:01:27;9.60;76.80
212;DHT22;16228;48.800;9.002;2022-12-18T11:04:05;9.70;77.20
212;DHT22;16228;48.800;9.002;2022-12-18T11:06:52;10.20;75.60
212;DHT22;16228;48.800;9.002;2022-12-18T11:09:22;10.50;75.00
212;DHT22;16228;48.800;9.002;2022-12-18T11:11:50;10.60;73.90
212;DHT22;16228;48.800;9.002;2022-12-18T11:14:23;11.20;74.00
212;DHT22;16228;48.800;9.002;2022-12-18T11:16:51;10.80;71.10
212;DHT22;16228;48.800;9.002;2022-12-18T11:19:29;10.30;72.10
212;DHT22;16228;48.800;9.002;2022-12-18T11:21:58;9.80;72.70
212;DHT22;16228;48.800;9.002;2022-12-18T11:24:29;9.40;73.90
212;DHT22;16228;48.800;9.002;2022-12-18T11:26:58;8.70;74.80
212;DHT22;16228;48.800;9.002;2022-12-18T11:29:32;8.40;75.80
212;DHT22;16228;48.800;9.002;2022-12-18T11:32:29;8.10;77.10
212;DHT22;16228;48.800;9.002;2022-12-18T11:35:01;8.30;76.40
212;DHT22;16228;48.800;9.002;2022-12-18T11:37:29;8.20;76.30
212;DHT22;16228;48.800;9.002;2022-12-18T11:40:01;8.20;76.20
212;DHT22;16228;48.800;9.002;2022-12-18T11:42:37;8.10;76.10
212;DHT22;16228;48.800;9.002;2022-12-18T11:45:24;8.00;76.40
212;DHT22;16228;48.800;9.002;2022-12-18T11:47:57;8.00;77.60
212;DHT22;16228;48.800;9.002;2022-12-18T11:50:28;8.40;76.60
212;DHT22;16228;48.800;9.002;2022-12-18T11:52:56;8.10;75.00
212;DHT22;16228;48.800;9.002;2022-12-18T11:55:30;8.10;75.40
212;DHT22;16228;48.800;9.002;2022-12-18T11:58:03;8.00;76.90
212;DHT22;16228;48.800;9.002;2022-12-18T12:00:36;8.30;77.80
212;DHT22;16228;48.800;9.002;2022-12-18T12:03:24;8.60;76.00
212;DHT22;16228;48.800;9.002;2022-12-18T12:06:06;7.90;76.80
212;DHT22;16228;48.800;9.002;2022-12-18T12:08:45;7.60;77.60
212;DHT22;16228;48.800;9.002;2022-12-18T12:11:25;7.00;78.20
212;DHT22;16228;48.800;9.002;2022-12-18T12:14:06;6.10;80.70
212;DHT22;16228;48.800;9.002;2022-12-18T12:16:45;5.90;81.70
212;DHT22;16228;48.800;9.002;2022-12-18T12:19:28;5.70;82.10
212;DHT22;16228;48.800;9.002;2022-12-18T12:22:03;5.80;82.60
212;DHT22;16228;48.800;9.002;2022-12-18T12:24:41;5.80;83.30
212;DHT22;16228;48.800;9.002;2022-12-18T12:27:23;5.70;82.80
212;DHT22;16228;48.800;9.002;2022-12-18T12:30:03;5.40;82.80
212;DHT22;16228;48.800;9.002;2022-12-18T12:32:46;5.10;84.00
212;DHT22;16228;48.800;9.002;2022-12-18T12:35:36;4.90;84.20
212;DHT22;16228;48.800;9.002;2022-12-18T12:38:09;4.50;85.40
212;DHT22;16228;48.800;9.002;2022-12-18T12:40:43;4.30;86.50
212;DHT22;16228;48.800;9.002;2022-12-18T12:43:21;4.10;87.60
212;DHT22;16228;48.800;9.002;2022-12-18T12:45:53;4.00;87.60
212;DHT22;16228;48.800;9.002;2022-12-18T12:48:31;4.10;88.80
212;DHT22;16228;48.800;9.002;2022-12-18T12:51:02;3.90;88.90
212;DHT22;16228;48.800;9.002;2022-12-18T12:53:35;3.60;90.40
212;DHT22;16228;48.800;9.002;2022-12-18T12:56:05;3.50;91.10
212;DHT22;16228;48.800;9.002;2022-12-18T12:58:38;3.40;92.20
212;DHT22;16228;48.800;9.002;2022-12-18T13:01:16;3.50;93.20
212;DHT22;16228;48.800;9.002;2022-12-18T13:03:53;3.60;93.00
212;DHT22;16228;48.800;9.002;2022-12-18T13:06:30;3.80;92.60
212;DHT22;16228;48.800;9.002;2022-12-18T13:09:00;4.00;92.30
212;DHT22;16228;48.800;9.002;2022-12-18T13:11:35;4.20;91.40
212;DHT22;16228;48.800;9.002;2022-12-18T13:14:23;4.20;90.80
212;DHT22;16228;48.800;9.002;2022-12-18T13:16:51;4.10;90.30
212;DHT22;16228;48.800;9.002;2022-12-18T13:19:26;3.80;90.50
212;DHT22;16228;48.800;9.002;2022-12-18T13:21:54;3.50;91.50
212;DHT22;16228;48.800;9.002;2022-12-18T13:24:25;3.30;93.00
212;DHT22;16228;48.800;9.002;2022-12-18T13:26:52;3.20;93.10
212;DHT22;16228;48.800;9.002;2022-12-18T13:29:42;3.10;93.30
212;DHT22;16228;48.800;9.002;2022-12-18T13:32:20;2.80;94.10
212;DHT22;16228;48.800;9.002;2022-12-18T13:38:23;2.40;95.00
212;DHT22;16228;48.800;9.002;2022-12-18T13:40:55;2.10;96.90
212;DHT22;16228;48.800;9.002;2022-12-18T13:43:34;2.20;96.90
212;DHT22;16228;48.800;9.002;2022-12-18T13:46:18;2.20;96.90
212;DHT22;16228;48.800;9.002;2022-12-18T13:48:52;2.20;96.90
212;DHT22;16228;48.800;9.002;2022-12-18T13:51:21;1.90;96.90
212;DHT22;16228;48.800;9.002;2022-12-18T13:53:52;2.00;96.90
212;DHT22;16228;48.800;9.002;2022-12-18T13:56:24;1.90;96.90
212;DHT22;16228;48.800;9.002;2022-12-18T13:59:19;1.70;96.90
212;DHT22;16228;48.800;9.002;2022-12-18T14:01:50;1.50;96.90
212;DHT22;16228;48.800;9.002;2022-12-18T14:04:21;1.40;96.90
212;DHT22;16228;48.800;9.002;2022-12-18T14:06:51;1.30;96.90
212;DHT22;16228;48.800;9.002;2022-12-18T14:09:24;1.20;96.90
212;DHT22;16228;48.800;9.002;2022-12-18T14:11:52;1.20;96.90
212;DHT22;16228;48.800;9.002;2022-12-18T14:14:42;1.10;96.90
212;DHT22;16228;48.800;9.002;2022-12-18T14:17:11;1.00;96.90
212;DHT22;16228;48.800;9.002;2022-12-18T14:19:42;0.80;96.90
212;DHT22;16228;48.800;9.002;2022-12-18T14:22:18;0.50;96.90
212;DHT22;16228;48.800;9.002;2022-12-18T14:25:04;0.50;96.90
212;DHT22;16228;48.800;9.002;2022-12-18T14:27:36;0.20;96.90
212;DHT22;16228;48.800;9.002;2022-12-18T14:30:24;0.00;96.90
212;DHT22;16228;48.800;9.002;2022-12-18T14:33:00;0.00;96.90
212;DHT22;16228;48.800;9.002;2022-12-18T14:35:27;0.00;96.90
212;DHT22;16228;48.800;9.002;2022-12-18T14:38:17;-0.20;96.90
212;DHT22;16228;48.800;9.002;2022-12-18T14:40:47;-0.30;96.90
212;DHT22;16228;48.800;9.002;2022-12-18T14:43:18;-0.50;96.90
212;DHT22;16228;48.800;9.002;2022-12-18T14:45:46;-0.50;96.90
212;DHT22;16228;48.800;9.002;2022-12-18T14:48:16;-0.50;96.90
212;DHT22;16228;48.800;9.002;2022-12-18T14:50:45;-0.70;96.90
212;DHT22;16228;48.800;9.002;2022-12-18T14:53:20;-0.80;96.90
212;DHT22;16228;48.800;9.002;2022-12-18T14:55:51;-0.80;96.90
212;DHT22;16228;48.800;9.002;2022-12-18T14:58:18;-0.80;96.90
212;DHT22;16228;48.800;9.002;2022-12-18T15:00:45;-0.90;96.90
212;DHT22;16228;48.800;9.002;2022-12-18T15:03:18;-1.00;96.90
212;DHT22;16228;48.800;9.002;2022-12-18T15:05:46;-1.00;96.90
212;DHT22;16228;48.800;9.002;2022-12-18T15:08:31;-1.20;96.90
212;DHT22;16228;48.800;9.002;2022-12-18T15:11:02;-1.30;96.90
212;DHT22;16228;48.800;9.002;2022-12-18T15:13:30;-1.40;96.90
212;DHT22;16228;48.800;9.002;2022-12-18T15:16:00;-1.50;96.90
212;DHT22;16228;48.800;9.002;2022-12-18T15:18:31;-1.50;96.90
212;DHT22;16228;48.800;9.002;2022-12-18T15:21:07;-1.70;96.90
212;DHT22;16228;48.800;9.002;2022-12-18T15:23:37;-1.80;96.90
212;DHT22;16228;48.800;9.002;2022-12-18T15:26:07;-1.90;96.90
212;DHT22;16228;48.800;9.002;2022-12-18T15:28:37;-1.90;96.90
212;DHT22;16228;48.800;9.002;2022-12-18T15:31:20;-1.90;96.90
212;DHT22;16228;48.800;9.002;2022-12-18T15:34:10;-2.10;96.90
212;DHT22;16228;48.800;9.002;2022-12-18T15:36:39;-2.10;96.90
212;DHT22;16228;48.800;9.002;2022-12-18T15:39:06;-2.10;96.90
212;DHT22;16228;48.800;9.002;2022-12-18T15:41:38;-2.20;96.90
212;DHT22;16228;48.800;9.002;2022-12-18T15:44:22;-2.20;96.90
212;DHT22;16228;48.800;9.002;2022-12-18T15:46:49;-2.30;96.90
212;DHT22;16228;48.800;9.002;2022-12-18T15:49:16;-2.50;96.90
212;DHT22;16228;48.800;9.002;2022-12-18T15:51:51;-2.50;96.90
212;DHT22;16228;48.800;9.002;2022-12-18T15:54:19;-2.60;96.90
212;DHT22;16228;48.800;9.002;2022-12-18T15:57:10;-2.60;96.90
212;DHT22;16228;48.800;9.002;2022-12-18T15:59:48;-2.50;96.90
212;DHT22;16228;48.800;9.002;2022-12-18T16:02:17;-2.50;96.90
212;DHT22;16228;48.800;9.002;2022-12-18T16:04:44;-2.50;96.90
212;DHT22;16228;48.800;9.002;2022-12-18T16:07:12;-2.50;96.90
212;DHT22;16228;48.800;9.002;2022-12-18T16:09:40;-2.50;96.90
212;DHT22;16228;48.800;9.002;2022-12-18T16:12:15;-2.50;96.90
212;DHT22;16228;48.800;9.002;2022-12-18T16:14:43;-2.50;96.90
212;DHT22;16228;48.800;9.002;2022-12-18T16:17:11;-2.60;96.90
212;DHT22;16228;48.800;9.002;2022-12-18T16:19:38;-2.60;96.90
212;DHT22;16228;48.800;9.002;2022-12-18T16:22:08;-2.60;96.90
212;DHT22;16228;48.800;9.002;2022-12-18T16:24:37;-2.60;96.90
212;DHT22;16228;48.800;9.002;2022-12-18T16:27:04;-2.70;96.90
212;DHT22;16228;48.800;9.002;2022-12-18T16:29:33;-2.70;96.90